Time;durP1;ratioP1;P1;durP2;ratioP2;P2;SDS_P1;SDS_P2;PMS_P1;PMS_P2;Temp;Humidity;BMP_temperature;BMP_pressure;BME280_temperature;BME280_humidity;BME280_pressure;Samples;Min_cycle;Max_cycle;Signal;HPM_P1;HPM_P2
2022/11/11 00:02:08;;;;;;;5.88;3.45;;;;;;;;;;10363539;28;20049;-63
2022/11/11 00:07:09;;;;;;;7.25;3.05;;;;;;;;;;10364643;28;20038;-58
2022/11/11 00:12:09;;;;;;;7.20;3.50;;;;;;;;;;10365831;28;20389;-53
2022/11/11 00:27:50;;;;;;;5.95;3.13;;;;;;;;;;10364874;28;20045;-57
2022/11/11 00:32:50;;;;;;;3.63;3.10;;;;;;;;;;10365906;28;20051;-53
2022/11/11 00:37:51;;;;;;;4.30;3.00;;;;;;;;;;10364389;28;20038;-62
2022/11/11 00:42:51;;;;;;;8.93;3.05;;;;;;;;;;10366137;28;20124;-55
2022/11/11 00:53:10;;;;;;;;;;;;;;;;;;10366780;28;20037;-56
2022/11/11 00:58:10;;;;;;;4.50;2.95;;;;;;;;;;10365447;28;19917;-64
2022/11/11 01:03:10;;;;;;;4.63;2.95;;;;;;;;;;10365168;28;20072;-58
2022/11/11 01:08:11;;;;;;;8.15;2.70;;;;;;;;;;10364820;28;20032;-55
2022/11/11 01:13:16;;;;;;;4.38;2.80;;;;;;;;;;10369151;28;20116;-56
2022/11/11 01:18:17;;;;;;;4.75;3.00;;;;;;;;;;10372229;28;20030;-60
2022/11/11 01:23:17;;;;;;;5.82;2.40;;;;;;;;;;10367193;28;20022;-61
2022/11/11 01:28:18;;;;;;;8.05;3.10;;;;;;;;;;10371950;28;20393;-57
2022/11/11 01:33:18;;;;;;;7.37;3.03;;;;;;;;;;10375207;28;20467;-58
2022/11/11 01:38:18;;;;;;;4.70;2.65;;;;;;;;;;10367000;28;20459;-56
2022/11/11 01:43:20;;;;;;;4.40;2.72;;;;;;;;;;10371611;28;20036;-57
2022/11/11 01:53:43;;;;;;;3.50;2.70;;;;;;;;;;10368531;28;20026;-63
2022/11/11 01:58:44;;;;;;;7.30;2.92;;;;;;;;;;10367009;28;20389;-60
2022/11/11 02:05:41;;;;;;;4.43;2.90;;;;;;;;;;10371032;28;20514;-62
2022/11/11 02:09:06;;;;;;;4.68;2.72;;;;;;;;;;10370464;28;20041;-62
2022/11/11 02:19:25;;;;;;;;;;;;;;;;;;10371333;28;20482;-64
2022/11/11 02:24:26;;;;;;;4.10;2.65;;;;;;;;;;10370023;28;19922;-62
2022/11/11 02:29:26;;;;;;;4.28;2.50;;;;;;;;;;10369178;28;20119;-54
2022/11/11 02:34:31;;;;;;;3.58;2.40;;;;;;;;;;10371110;28;20034;-59
2022/11/11 02:39:33;;;;;;;6.22;3.05;;;;;;;;;;10366048;28;20041;-58
2022/11/11 02:44:34;;;;;;;3.70;2.70;;;;;;;;;;10351434;28;20049;-58
2022/11/11 02:49:34;;;;;;;3.50;2.45;;;;;;;;;;10368655;28;20038;-57
2022/11/11 02:54:34;;;;;;;4.13;2.40;;;;;;;;;;10369817;28;20196;-57
2022/11/11 02:59:35;;;;;;;3.92;2.60;;;;;;;;;;10356359;28;20030;-55
2022/11/11 03:04:37;;;;;;;5.05;2.63;;;;;;;;;;10367023;28;20061;-55
2022/11/11 03:09:37;;;;;;;5.70;2.80;;;;;;;;;;10364002;28;20058;-56
2022/11/11 03:14:37;;;;;;;5.60;2.80;;;;;;;;;;10361273;28;20113;-55
2022/11/11 03:19:37;;;;;;;4.28;2.45;;;;;;;;;;10367711;28;20061;-53
2022/11/11 03:29:56;;;;;;;2.90;2.25;;;;;;;;;;10397114;22;20049;-65
2022/11/11 03:34:57;;;;;;;3.13;2.63;;;;;;;;;;10399762;28;20026;-67
2022/11/11 03:39:57;;;;;;;4.30;2.60;;;;;;;;;;10394941;28;20022;-66
2022/11/11 03:44:57;;;;;;;3.25;2.40;;;;;;;;;;10384173;28;20037;-67
2022/11/11 03:49:57;;;;;;;3.08;2.30;;;;;;;;;;10380900;28;20025;-68
2022/11/11 03:54:59;;;;;;;3.05;2.42;;;;;;;;;;10399085;28;20056;-66
2022/11/11 03:59:59;;;;;;;4.43;2.45;;;;;;;;;;10387945;28;20407;-65
2022/11/11 04:10:24;;;;;;;4.65;2.22;;;;;;;;;;10390476;28;20038;-67
2022/11/11 04:26:02;;;;;;;3.75;2.95;;;;;;;;;;10397333;28;20085;-65
2022/11/11 04:31:02;;;;;;;2.58;2.33;;;;;;;;;;10385738;28;20529;-67
2022/11/11 04:36:03;;;;;;;3.00;2.40;;;;;;;;;;10397201;28;20038;-67
2022/11/11 04:41:03;;;;;;;3.08;2.33;;;;;;;;;;10383484;28;20393;-67
2022/11/11 04:46:04;;;;;;;4.03;2.50;;;;;;;;;;10386314;28;20032;-66
2022/11/11 04:51:04;;;;;;;3.03;2.40;;;;;;;;;;10379700;28;20040;-65
2022/11/11 05:12:01;;;;;;;;;;;;;;;;;;10397579;28;20034;-65
2022/11/11 05:22:20;;;;;;;;;;;;;;;;;;10384033;28;20481;-64
2022/11/11 05:27:20;;;;;;;2.63;2.17;;;;;;;;;;10399721;28;19913;-62
2022/11/11 05:32:21;;;;;;;2.63;2.10;;;;;;;;;;10397340;28;20049;-65
2022/11/11 05:37:22;;;;;;;4.43;2.55;;;;;;;;;;10395657;28;20037;-63
2022/11/11 05:42:22;;;;;;;4.28;2.30;;;;;;;;;;10385101;28;20444;-65
2022/11/11 05:47:22;;;;;;;3.97;2.60;;;;;;;;;;10393568;28;20092;-64
2022/11/11 05:52:22;;;;;;;6.15;2.50;;;;;;;;;;10390186;28;20492;-63
2022/11/11 05:57:23;;;;;;;4.05;2.47;;;;;;;;;;10411554;28;20039;-66
2022/11/11 06:02:23;;;;;;;2.35;2.10;;;;;;;;;;10381471;28;20034;-63
2022/11/11 06:07:23;;;;;;;3.73;2.20;;;;;;;;;;10376429;28;20038;-66
2022/11/11 06:12:24;;;;;;;2.10;1.90;;;;;;;;;;10383942;28;20849;-66
2022/11/11 06:17:24;;;;;;;3.65;2.42;;;;;;;;;;10401170;28;20056;-62
2022/11/11 06:22:55;;;;;;;4.72;2.58;;;;;;;;;;10403074;28;20033;-68
2022/11/11 06:27:44;;;;;;;4.50;2.80;;;;;;;;;;10379586;28;20116;-64
2022/11/11 06:32:45;;;;;;;17.60;2.83;;;;;;;;;;10382921;28;20488;-67
2022/11/11 06:37:45;;;;;;;6.90;3.38;;;;;;;;;;10361330;28;20471;-57
2022/11/11 06:42:45;;;;;;;16.17;2.83;;;;;;;;;;10369785;28;20497;-68
2022/11/11 06:47:45;;;;;;;14.73;3.40;;;;;;;;;;10372208;28;20026;-66
2022/11/11 06:52:46;;;;;;;11.73;3.60;;;;;;;;;;10367747;28;20036;-63
2022/11/11 06:57:46;;;;;;;10.83;3.20;;;;;;;;;;10362664;28;20506;-67
2022/11/11 07:02:46;;;;;;;14.70;3.67;;;;;;;;;;10360068;28;20088;-64
2022/11/11 07:07:47;;;;;;;6.85;3.05;;;;;;;;;;10348169;28;20026;-64
2022/11/11 07:12:47;;;;;;;10.80;3.60;;;;;;;;;;10340706;28;20034;-67
2022/11/11 07:17:47;;;;;;;9.73;3.30;;;;;;;;;;10335179;28;20037;-64
2022/11/11 07:22:48;;;;;;;13.77;3.77;;;;;;;;;;10336385;28;20033;-67
2022/11/11 07:27:48;;;;;;;11.87;3.43;;;;;;;;;;10341958;28;20132;-67
2022/11/11 07:32:49;;;;;;;10.82;3.65;;;;;;;;;;10340225;28;20494;-61
2022/11/11 07:37:50;;;;;;;8.30;3.55;;;;;;;;;;10336843;28;20033;-62
2022/11/11 07:42:50;;;;;;;6.00;3.38;;;;;;;;;;10335678;28;20040;-61
2022/11/11 07:47:51;;;;;;;14.80;3.92;;;;;;;;;;10344374;28;20034;-66
2022/11/11 07:52:51;;;;;;;6.05;3.53;;;;;;;;;;10344038;28;20505;-66
2022/11/11 07:57:52;;;;;;;9.13;3.17;;;;;;;;;;10343172;28;20032;-64
2022/11/11 08:02:52;;;;;;;7.40;3.40;;;;;;;;;;10344972;28;20041;-59
2022/11/11 08:07:52;;;;;;;8.88;3.45;;;;;;;;;;10347097;28;20390;-65
2022/11/11 08:18:12;;;;;;;4.93;3.60;;;;;;;;;;10403994;28;20037;-53
2022/11/11 08:23:15;;;;;;;4.53;3.22;;;;;;;;;;10399390;28;20033;-50
2022/11/11 08:28:16;;;;;;;4.97;3.03;;;;;;;;;;10402697;28;20026;-59
2022/11/11 08:33:17;;;;;;;5.22;3.60;;;;;;;;;;10382489;28;20022;-60
2022/11/11 08:38:17;;;;;;;8.73;3.88;;;;;;;;;;10394035;28;20139;-62
2022/11/11 08:43:17;;;;;;;8.43;4.00;;;;;;;;;;10341440;28;20218;-56
2022/11/11 08:48:18;;;;;;;3.93;3.40;;;;;;;;;;10338040;28;20130;-59
2022/11/11 08:53:19;;;;;;;6.53;4.00;;;;;;;;;;10342399;28;20029;-56
2022/11/11 08:58:19;;;;;;;11.15;4.40;;;;;;;;;;10336543;28;20468;-55
2022/11/11 09:03:20;;;;;;;5.85;3.50;;;;;;;;;;10345468;28;20026;-56
2022/11/11 09:08:20;;;;;;;5.78;3.70;;;;;;;;;;10352273;28;20034;-56
2022/11/11 09:13:21;;;;;;;6.38;4.03;;;;;;;;;;10344742;28;20026;-50
2022/11/11 09:18:21;;;;;;;7.47;4.05;;;;;;;;;;10374953;28;20552;-51
2022/11/11 09:23:21;;;;;;;8.90;3.60;;;;;;;;;;10377848;28;20090;-54
2022/11/11 09:28:21;;;;;;;5.68;3.63;;;;;;;;;;10380639;28;20038;-63
2022/11/11 09:33:22;;;;;;;7.38;3.40;;;;;;;;;;10371722;28;20040;-65
2022/11/11 09:38:22;;;;;;;8.88;3.55;;;;;;;;;;10371807;28;20503;-66
2022/11/11 09:43:27;;;;;;;7.32;3.55;;;;;;;;;;10370199;28;20390;-65
2022/11/11 09:48:43;;;;;;;4.20;3.33;;;;;;;;;;10365246;28;20105;-66
2022/11/11 09:53:46;;;;;;;5.50;3.75;;;;;;;;;;10359281;28;20029;-64
2022/11/11 09:58:51;;;;;;;4.60;3.40;;;;;;;;;;10400052;28;20079;-64
2022/11/11 10:04:12;;;;;;;4.28;3.33;;;;;;;;;;10362839;28;20406;-67
2022/11/11 10:09:12;;;;;;;6.75;3.70;;;;;;;;;;10290964;28;20038;-61
2022/11/11 10:14:12;;;;;;;3.95;3.40;;;;;;;;;;10345173;28;20045;-59
2022/11/11 10:19:31;;;;;;;7.85;3.67;;;;;;;;;;10353441;28;20030;-67
2022/11/11 10:24:34;;;;;;;4.22;2.95;;;;;;;;;;10353776;28;20027;-65
2022/11/11 10:29:39;;;;;;;7.45;3.10;;;;;;;;;;10370652;28;20100;-62
2022/11/11 10:34:39;;;;;;;4.47;3.28;;;;;;;;;;10356542;28;20030;-56
2022/11/11 10:39:59;;;;;;;5.63;3.40;;;;;;;;;;10368806;28;20022;-56
2022/11/11 10:45:01;;;;;;;5.40;3.30;;;;;;;;;;10357652;28;20026;-59
2022/11/11 10:50:05;;;;;;;3.60;3.03;;;;;;;;;;10369697;28;20025;-61
2022/11/11 10:55:08;;;;;;;5.07;3.05;;;;;;;;;;10358563;28;20088;-56
2022/11/11 11:00:13;;;;;;;3.22;2.75;;;;;;;;;;10377282;28;20037;-60
2022/11/11 11:05:21;;;;;;;5.50;3.00;;;;;;;;;;10369745;28;20366;-56
2022/11/11 11:10:33;;;;;;;3.90;3.17;;;;;;;;;;10366026;28;20161;-69
2022/11/11 11:15:37;;;;;;;6.72;3.20;;;;;;;;;;10352254;28;20486;-67
2022/11/11 11:20:39;;;;;;;3.78;2.72;;;;;;;;;;10366400;28;20062;-67
2022/11/11 11:25:50;;;;;;;3.40;3.08;;;;;;;;;;10365245;28;20040;-68
2022/11/11 11:30:58;;;;;;;5.32;3.15;;;;;;;;;;10372832;28;20041;-64
2022/11/11 11:36:12;;;;;;;2.88;2.42;;;;;;;;;;10355198;28;20047;-65
2022/11/11 11:41:12;;;;;;;5.32;3.15;;;;;;;;;;10340760;28;20026;-69
2022/11/11 11:46:14;;;;;;;5.88;3.08;;;;;;;;;;10359364;28;20029;-68
2022/11/11 11:51:21;;;;;;;7.28;2.90;;;;;;;;;;10371792;28;20029;-66
2022/11/11 11:56:30;;;;;;;3.00;2.70;;;;;;;;;;10353633;28;20111;-68
2022/11/11 12:01:50;;;;;;;3.30;2.78;;;;;;;;;;10351614;28;20069;-69
2022/11/11 12:06:56;;;;;;;3.67;2.78;;;;;;;;;;10360655;28;20088;-68
2022/11/11 12:12:06;;;;;;;4.85;2.90;;;;;;;;;;10363073;28;20029;-66
2022/11/11 12:17:15;;;;;;;3.95;2.60;;;;;;;;;;10364335;28;20033;-68
2022/11/11 12:22:15;;;;;;;;;;;;;;;;;;10356570;28;20030;-68
2022/11/11 12:27:26;;;;;;;3.10;2.30;;;;;;;;;;10350479;28;19917;-68
2022/11/11 12:32:29;;;;;;;3.70;2.55;;;;;;;;;;10348488;28;20417;-69
2022/11/11 12:37:53;;;;;;;5.18;3.03;;;;;;;;;;10348174;28;20389;-68
2022/11/11 12:43:00;;;;;;;3.00;2.30;;;;;;;;;;10338616;28;20053;-65
2022/11/11 12:48:07;;;;;;;4.40;2.85;;;;;;;;;;10345166;28;20042;-67
2022/11/11 12:53:17;;;;;;;4.00;2.75;;;;;;;;;;10360930;28;20034;-66
2022/11/11 12:58:20;;;;;;;8.50;2.60;;;;;;;;;;10362604;28;20026;-64
2022/11/11 13:03:23;;;;;;;3.47;2.67;;;;;;;;;;10358445;28;20531;-64
2022/11/11 13:08:29;;;;;;;4.00;2.55;;;;;;;;;;10358252;28;20026;-65
2022/11/11 13:13:45;;;;;;;4.93;3.03;;;;;;;;;;10362106;28;20026;-65
2022/11/11 13:18:52;;;;;;;3.90;2.63;;;;;;;;;;10365858;28;20026;-63
2022/11/11 13:23:53;;;;;;;4.68;2.35;;;;;;;;;;10366921;28;20401;-59
2022/11/11 13:28:59;;;;;;;3.37;2.57;;;;;;;;;;10364460;28;20038;-64
2022/11/11 13:34:09;;;;;;;4.65;2.53;;;;;;;;;;10367164;28;20061;-63
2022/11/11 13:39:21;;;;;;;4.30;2.60;;;;;;;;;;10368807;28;20040;-66
2022/11/11 13:44:23;;;;;;;5.35;2.83;;;;;;;;;;10356603;28;20041;-61
2022/11/11 13:49:25;;;;;;;10.60;3.78;;;;;;;;;;10376322;28;20033;-67
2022/11/11 13:54:34;;;;;;;3.95;2.47;;;;;;;;;;10364964;28;20061;-67
2022/11/11 13:59:39;;;;;;;6.72;2.85;;;;;;;;;;10351915;28;20587;-68
2022/11/11 14:04:58;;;;;;;5.78;2.90;;;;;;;;;;10364148;28;20382;-65
2022/11/11 14:10:01;;;;;;;9.45;2.70;;;;;;;;;;10351854;28;20022;-60
2022/11/11 14:15:06;;;;;;;4.47;2.42;;;;;;;;;;10362887;28;20041;-66
2022/11/11 14:20:25;;;;;;;4.80;2.50;;;;;;;;;;10354997;28;20040;-66
2022/11/11 14:25:26;;;;;;;4.57;2.63;;;;;;;;;;10375389;28;20025;-66
2022/11/11 14:30:29;;;;;;;6.70;3.28;;;;;;;;;;10370456;28;20052;-67
2022/11/11 14:35:36;;;;;;;8.07;2.58;;;;;;;;;;10385160;28;20033;-67
2022/11/11 14:40:37;;;;;;;12.52;2.45;;;;;;;;;;10377052;28;20388;-67
2022/11/11 14:45:43;;;;;;;9.43;3.10;;;;;;;;;;10377525;28;20035;-67
2022/11/11 14:50:44;;;;;;;6.13;3.00;;;;;;;;;;10344223;28;20502;-67
2022/11/11 14:55:50;;;;;;;9.98;3.30;;;;;;;;;;10379346;28;20068;-58
2022/11/11 15:00:59;;;;;;;5.60;3.33;;;;;;;;;;10356197;28;20038;-67
2022/11/11 15:06:04;;;;;;;17.07;3.77;;;;;;;;;;10338898;28;20027;-67
2022/11/11 15:11:13;;;;;;;10.82;3.20;;;;;;;;;;10347689;28;20502;-66
2022/11/11 15:16:14;;;;;;;10.45;3.25;;;;;;;;;;10382428;28;20391;-67
2022/11/11 15:21:14;;;;;;;15.38;3.20;;;;;;;;;;10396392;28;20242;-66
2022/11/11 15:26:20;;;;;;;13.48;3.50;;;;;;;;;;10381792;28;20018;-65
2022/11/11 15:31:33;;;;;;;9.32;3.13;;;;;;;;;;10390297;28;20049;-48
2022/11/11 15:36:41;;;;;;;15.45;3.30;;;;;;;;;;10373457;28;20125;-49
2022/11/11 15:41:42;;;;;;;8.25;2.78;;;;;;;;;;10379076;28;20025;-49
2022/11/11 15:46:42;;;;;;;8.48;3.00;;;;;;;;;;10392907;28;20540;-50
2022/11/11 15:51:43;;;;;;;7.68;3.10;;;;;;;;;;10390698;28;20037;-47
2022/11/11 15:56:43;;;;;;;12.65;2.83;;;;;;;;;;10393152;28;20025;-48
2022/11/11 16:01:44;;;;;;;7.50;2.88;;;;;;;;;;10406743;28;20017;-48
2022/11/11 16:06:45;;;;;;;10.77;3.50;;;;;;;;;;10406110;28;20018;-48
2022/11/11 16:11:45;;;;;;;6.90;2.88;;;;;;;;;;10405945;28;20367;-48
2022/11/11 16:16:46;;;;;;;8.52;2.75;;;;;;;;;;10401249;28;20030;-47
2022/11/11 16:21:51;;;;;;;7.35;3.08;;;;;;;;;;10397388;28;20048;-50
2022/11/11 16:26:52;;;;;;;7.70;2.58;;;;;;;;;;10392511;28;20037;-48
2022/11/11 16:31:52;;;;;;;6.65;2.78;;;;;;;;;;10405391;28;20045;-48
2022/11/11 16:37:02;;;;;;;5.28;2.17;;;;;;;;;;10392437;28;20034;-49
2022/11/11 16:42:07;;;;;;;4.68;2.60;;;;;;;;;;10405257;28;20030;-48
2022/11/11 16:47:27;;;;;;;9.23;3.25;;;;;;;;;;10402175;28;20397;-48
2022/11/11 16:52:27;;;;;;;5.85;3.03;;;;;;;;;;10353271;28;20517;-48
2022/11/11 16:57:31;;;;;;;4.18;2.58;;;;;;;;;;10329229;28;20033;-48
2022/11/11 17:02:33;;;;;;;5.10;2.50;;;;;;;;;;10359978;28;20064;-52
2022/11/11 17:07:35;;;;;;;6.15;2.60;;;;;;;;;;10355384;28;20030;-50
2022/11/11 17:12:38;;;;;;;7.57;2.67;;;;;;;;;;10357683;28;20037;-49
2022/11/11 17:17:40;;;;;;;4.70;2.53;;;;;;;;;;10368918;28;20029;-50
2022/11/11 17:22:50;;;;;;;6.68;2.85;;;;;;;;;;10368294;28;20453;-50
2022/11/11 17:27:50;;;;;;;6.63;2.50;;;;;;;;;;10364103;28;20022;-49
2022/11/11 17:32:50;;;;;;;8.07;3.07;;;;;;;;;;10336861;28;20050;-49
2022/11/11 17:37:50;;;;;;;5.82;2.50;;;;;;;;;;10330501;28;20046;-49
2022/11/11 17:42:51;;;;;;;5.95;2.63;;;;;;;;;;10344719;28;20100;-50
2022/11/11 17:47:53;;;;;;;11.85;2.95;;;;;;;;;;10337310;28;20117;-48
2022/11/11 17:52:54;;;;;;;7.97;2.70;;;;;;;;;;10341349;28;20469;-56
2022/11/11 17:57:56;;;;;;;7.00;2.58;;;;;;;;;;10345008;28;20030;-57
2022/11/11 18:02:56;;;;;;;3.67;2.40;;;;;;;;;;10347449;28;20049;-49
2022/11/11 18:07:56;;;;;;;6.40;2.70;;;;;;;;;;10342634;28;20382;-49
2022/11/11 18:12:57;;;;;;;8.32;2.83;;;;;;;;;;10343496;28;20026;-48
2022/11/11 18:17:57;;;;;;;4.28;2.35;;;;;;;;;;10363598;28;20105;-49
2022/11/11 18:22:58;;;;;;;5.38;2.90;;;;;;;;;;10376376;28;20030;-49
2022/11/11 18:27:58;;;;;;;8.48;2.95;;;;;;;;;;10356409;28;20032;-52
2022/11/11 18:32:58;;;;;;;5.00;3.00;;;;;;;;;;10366832;28;20034;-51
2022/11/11 18:37:58;;;;;;;8.20;3.10;;;;;;;;;;10375038;23;20080;-49
2022/11/11 18:42:59;;;;;;;4.28;2.92;;;;;;;;;;10403594;28;20030;-52
2022/11/11 18:47:59;;;;;;;9.82;3.40;;;;;;;;;;10397798;28;20034;-53
2022/11/11 18:52:59;;;;;;;16.55;3.75;;;;;;;;;;10362535;28;20026;-50
2022/11/11 18:57:59;;;;;;;7.32;3.67;;;;;;;;;;10371698;28;20025;-48
2022/11/11 19:03:00;;;;;;;7.55;3.40;;;;;;;;;;10372099;28;20055;-48
2022/11/11 19:08:00;;;;;;;5.40;3.20;;;;;;;;;;10361310;28;20116;-48
2022/11/11 19:13:00;;;;;;;9.43;4.05;;;;;;;;;;10362111;28;20042;-48
2022/11/11 19:18:02;;;;;;;6.35;3.50;;;;;;;;;;10364122;28;20057;-51
2022/11/11 19:23:02;;;;;;;11.20;4.22;;;;;;;;;;10362217;28;20029;-48
2022/11/11 19:28:03;;;;;;;8.00;4.00;;;;;;;;;;10373483;28;20028;-49
2022/11/11 19:33:04;;;;;;;8.10;4.28;;;;;;;;;;10367511;28;20034;-49
2022/11/11 19:38:04;;;;;;;11.88;4.78;;;;;;;;;;10372826;28;20038;-48
2022/11/11 19:43:04;;;;;;;12.68;4.78;;;;;;;;;;10371902;28;20033;-52
2022/11/11 19:48:05;;;;;;;8.80;4.15;;;;;;;;;;10365658;28;20762;-48
2022/11/11 19:53:05;;;;;;;8.43;4.05;;;;;;;;;;10382450;28;20401;-50
2022/11/11 19:58:05;;;;;;;10.50;4.72;;;;;;;;;;10374348;28;20026;-48
2022/11/11 20:03:05;;;;;;;9.80;4.25;;;;;;;;;;10374895;28;20022;-48
2022/11/11 20:08:06;;;;;;;7.28;4.72;;;;;;;;;;10363483;28;20042;-48
2022/11/11 20:13:06;;;;;;;12.05;4.72;;;;;;;;;;10372224;28;20030;-48
2022/11/11 20:18:06;;;;;;;5.47;4.45;;;;;;;;;;10371112;28;20041;-48
2022/11/11 20:23:07;;;;;;;8.18;4.80;;;;;;;;;;10376534;28;20064;-49
2022/11/11 20:28:07;;;;;;;8.03;4.80;;;;;;;;;;10364414;28;20033;-48
2022/11/11 20:33:07;;;;;;;11.18;5.13;;;;;;;;;;10366278;28;20172;-48
2022/11/11 20:38:08;;;;;;;9.25;5.65;;;;;;;;;;10377348;28;20120;-52
2022/11/11 20:43:08;;;;;;;9.80;5.68;;;;;;;;;;10382201;28;20033;-50
2022/11/11 20:48:08;;;;;;;8.27;5.17;;;;;;;;;;10376860;28;20087;-48
2022/11/11 20:53:09;;;;;;;9.23;5.70;;;;;;;;;;10361998;28;20030;-49
2022/11/11 20:58:09;;;;;;;9.32;5.93;;;;;;;;;;10363692;28;20389;-48
2022/11/11 21:03:09;;;;;;;13.10;6.55;;;;;;;;;;10363115;28;20217;-49
2022/11/11 21:08:10;;;;;;;10.27;6.07;;;;;;;;;;10362325;28;20097;-47
2022/11/11 21:13:10;;;;;;;10.10;6.43;;;;;;;;;;10365572;28;20041;-47
2022/11/11 21:18:10;;;;;;;10.25;6.15;;;;;;;;;;10363853;28;20033;-49
2022/11/11 21:23:10;;;;;;;14.07;5.93;;;;;;;;;;10366209;28;20029;-47
2022/11/11 21:28:11;;;;;;;10.63;6.15;;;;;;;;;;10366190;28;20096;-50
2022/11/11 21:33:11;;;;;;;8.43;5.50;;;;;;;;;;10376146;28;20855;-50
2022/11/11 21:38:12;;;;;;;13.52;6.03;;;;;;;;;;10374386;28;20471;-48
2022/11/11 21:43:13;;;;;;;12.57;5.85;;;;;;;;;;10396267;28;20079;-48
2022/11/11 21:48:13;;;;;;;6.28;5.10;;;;;;;;;;10398679;28;20037;-48
2022/11/11 21:53:13;;;;;;;10.55;5.13;;;;;;;;;;10372646;28;20546;-50
2022/11/11 21:58:13;;;;;;;10.55;5.45;;;;;;;;;;10372691;28;20540;-52
2022/11/11 22:03:14;;;;;;;10.98;5.20;;;;;;;;;;10359284;28;20030;-50
2022/11/11 22:08:14;;;;;;;9.75;5.55;;;;;;;;;;10372969;28;20026;-49
2022/11/11 22:13:14;;;;;;;10.40;5.07;;;;;;;;;;10369307;28;20405;-53
2022/11/11 22:18:14;;;;;;;9.23;5.18;;;;;;;;;;10370021;28;20101;-50
2022/11/11 22:23:15;;;;;;;7.60;4.72;;;;;;;;;;10368107;28;20037;-51
2022/11/11 22:28:15;;;;;;;7.90;4.78;;;;;;;;;;10389796;28;20048;-50
2022/11/11 22:33:15;;;;;;;9.18;5.10;;;;;;;;;;10386069;28;20026;-50
2022/11/11 22:38:15;;;;;;;5.38;3.97;;;;;;;;;;10393822;28;20120;-48
2022/11/11 22:43:16;;;;;;;7.63;4.50;;;;;;;;;;10389964;28;20033;-49
2022/11/11 22:48:16;;;;;;;7.95;5.00;;;;;;;;;;10367991;28;20026;-48
2022/11/11 22:53:16;;;;;;;7.75;4.70;;;;;;;;;;10371407;28;20109;-49
2022/11/11 22:58:17;;;;;;;9.33;5.17;;;;;;;;;;10374433;28;20022;-49
2022/11/11 23:03:17;;;;;;;6.00;4.35;;;;;;;;;;10371891;28;20055;-49
2022/11/11 23:08:17;;;;;;;8.40;4.93;;;;;;;;;;10400132;28;20014;-51
2022/11/11 23:13:17;;;;;;;11.38;5.63;;;;;;;;;;10395453;28;20018;-49
2022/11/11 23:18:18;;;;;;;8.07;4.82;;;;;;;;;;10392044;28;20052;-48
2022/11/11 23:23:18;;;;;;;6.60;4.65;;;;;;;;;;10400686;28;20026;-49
2022/11/11 23:28:19;;;;;;;5.15;4.00;;;;;;;;;;10400075;28;20488;-47
2022/11/11 23:33:19;;;;;;;6.32;4.40;;;;;;;;;;10393059;28;20033;-48
2022/11/11 23:38:19;;;;;;;6.40;3.92;;;;;;;;;;10401520;28;20044;-47
2022/11/11 23:43:19;;;;;;;7.40;4.07;;;;;;;;;;10396221;28;20033;-48
2022/11/11 23:48:21;;;;;;;6.68;4.10;;;;;;;;;;10369589;28;20026;-47
2022/11/11 23:53:21;;;;;;;13.40;4.38;;;;;;;;;;10369048;28;20091;-47
2022/11/11 23:58:22;;;;;;;5.00;4.03;;;;;;;;;;10387292;28;20024;-63
